Edward Cornwallis — CGJV — position and weather

sailwx.info

Track history (hours):
 
Tides and Currents Weather Stations Pressure Air Temp Water Temp Dewpoint Dewpoint Depression Visibility Wind Speed Wind Dir Waves Ship Positions

Edward Cornwallis

Last reported at 2016-Dec-09 01:00 UTC. Time now 2016-Dec-09 02:05 UTC.
Position N 43°06' W 066°18'.

Length 83 m; draft 6 m.

Type: SAR. MMSI: 316020000.

Wind from 300 at 27 knots

Barometer 1005.2 mb
Air temperature 4.7 ° C
Dewpoint 2.8 ° C

Date/timePositionNaut miles runAvg speedWind from/ knotsBaromVisibWave heightAir tempDewpointWater temp
2016-Dec-09 01:00N 43°06' W 066°18'1312.8 300 / 271005.2 4.7 2.8
2016-Dec-09 00:00N 43°18' W 066°24'1110.6 290 / 181005.7 4.5 3.5
2016-Dec-08 23:00N 43°24' W 066°36'1514.8 280 / 201005.7 5.0 3.4
2016-Dec-08 22:00N 43°36' W 066°48'1312.8 270 / 211005.6 5.8 2.7
2016-Dec-08 21:00N 43°48' W 066°54'1110.5 270 / 201005.4 6.2 1.3
2016-Dec-08 20:00N 43°54' W 067°06'1818.0 260 / 221006.0 6.5 1.3
2016-Dec-08 19:00N 44°12' W 067°06'1212.0 280 / 101006.7 5.9 0.2
2016-Dec-08 18:00N 44°24' W 067°06'6 6.0 320 / 31007.7 5.6 1.0
2016-Dec-08 17:00N 44°30' W 067°06'0 0.0 130 / 31008.8 5.3 0.1
2016-Dec-08 16:00N 44°30' W 067°06'0 0.0 140 / 41010.2 5.2 0.6
2016-Dec-08 15:00N 44°30' W 067°06'0 0.0 060 / 41010.9 5.0 0.7
2016-Dec-08 14:00N 44°30' W 067°06'0 0.0 360 / 81011.6 4.1 0.8
2016-Dec-08 13:00N 44°30' W 067°06'0 0.0 340 / 81011.7 4.6 0.6
2016-Dec-08 12:00N 44°30' W 067°06'0 0.0 340 / 51011.7 4.0 2.1
2016-Dec-08 11:00N 44°30' W 067°06'0 0.0 360 / 51011.9 4.5-0.7
2016-Dec-08 10:00N 44°30' W 067°06'0 0.0 340 / 61012.0 4.6 0.7
2016-Dec-08 09:00N 44°30' W 067°06'0 0.0 320 / 111012.1 4.6 3.7
2016-Dec-08 08:00N 44°30' W 067°06'0 0.0 320 / 91012.4 5.4 4.2
2016-Dec-08 07:00N 44°30' W 067°06'0 0.0 320 / 51013.0 5.3 4.7
2016-Dec-08 06:00N 44°30' W 067°06'0 0.0 200 / 121013.4 5.7 4.0
2016-Dec-08 05:00N 44°30' W 067°06'0 0.0 200 / 121014.0 5.4 3.7
2016-Dec-08 04:00N 44°30' W 067°06'0 0.0 200 / 101014.2 5.4 3.1
2016-Dec-08 03:00N 44°30' W 067°06'0 0.0 220 / 121014.9 5.4 2.5
2016-Dec-08 02:00N 44°30' W 067°06'0 0.0 200 / 51015.2 4.7 1.4
2016-Dec-08 01:00N 44°30' W 067°06'0 0.0 190 / 31015.1 4.1-0.0
2016-Dec-08 00:00N 44°30' W 067°06'0 0.0 180 / 81015.5 3.4-0.0
2016-Dec-07 23:00N 44°30' W 067°06'0 0.0 170 / 21015.3 2.6-0.1
2016-Dec-07 22:00N 44°30' W 067°06'0 0.0 260 / 31014.9 1.7-0.7
2016-Dec-07 21:00N 44°30' W 067°06'0 0.0 220 / 21014.9 1.0-0.4
2016-Dec-07 20:00N 44°30' W 067°06'0 0.0 310 / 51015.1 0.9-0.6
2016-Dec-07 19:00N 44°30' W 067°06'0 0.0 330 / 71015.2 0.6-1.0
2016-Dec-07 18:00N 44°30' W 067°06'0 0.0 310 / 51015.3 0.8-0.8
2016-Dec-07 17:00N 44°30' W 067°06'0 0.0 010 / 31015.4 0.8-0.6
2016-Dec-07 16:00N 44°30' W 067°06'0 0.0 360 / 51016.2 0.9-1.3
2016-Dec-07 15:00N 44°30' W 067°06'0 0.0 030 / 31017.0 0.3-2.5
2016-Dec-07 14:00N 44°30' W 067°06'0 0.0 040 / 71016.2 -0.2-1.9
2016-Dec-07 13:00N 44°30' W 067°06'0 0.0 010 / 81016.4 -0.9-2.0
2016-Dec-07 12:00N 44°30' W 067°06'0 0.0 010 / 91015.8 -1.0-2.1
2016-Dec-07 11:00N 44°30' W 067°06'0 0.0 020 / 61016.0 -0.9-2.2
2016-Dec-07 10:00N 44°30' W 067°06'0 0.0 030 / 71016.1 -1.3-2.5
2016-Dec-07 09:00N 44°30' W 067°06'0 0.0 350 / 71016.9 -1.3-2.7
2016-Dec-07 08:00N 44°30' W 067°06'0 0.0 010 / 111016.4 -0.9-2.1
2016-Dec-07 07:00N 44°30' W 067°06'0 0.0 020 / 81016.4 -0.4-2.0
2016-Dec-07 06:00N 44°30' W 067°06'0 0.0 020 / 51016.7 -1.0-2.9
2016-Dec-07 05:00N 44°30' W 067°06'0 0.0 010 / 91017.4 -1.0-3.0
2016-Dec-07 04:00N 44°30' W 067°06'0 0.0 020 / 111018.0 -0.8-3.2
2016-Dec-07 03:00N 44°30' W 067°06'0 0.0 360 / 111017.9 -1.2-3.8
2016-Dec-07 02:00N 44°30' W 067°06'0 0.0 010 / 141017.4 -1.4-4.0
2016-Dec-07 01:00N 44°30' W 067°06'0 0.0 360 / 121018.6 -1.6-4.3
2016-Dec-07 00:00N 44°30' W 067°06'0 0.0 330 / 101018.5 -1.5-4.3
2016-Dec-06 23:00N 44°30' W 067°06'0 0.0 340 / 121018.1 -1.6-4.5
2016-Dec-06 22:00N 44°30' W 067°06'0 0.0 330 / 131018.0 -1.8-4.5
2016-Dec-06 21:00N 44°30' W 067°06'0 0.0 330 / 141017.7 -1.9-4.9
2016-Dec-06 20:00N 44°30' W 067°06'0 0.0 350 / 121017.6 -1.5-3.8
2016-Dec-06 19:00N 44°30' W 067°06'1312.7 360 / 111017.4 -1.2-3.5
2016-Dec-06 18:00N 44°18' W 067°00'1312.7 340 / 61016.9 -1.0-3.0
2016-Dec-06 17:00N 44°06' W 066°54'1818.0 340 / 51016.8 -0.4-2.4
2016-Dec-06 16:00N 43°48' W 066°54'1312.8 330 / 61017.2 0.6-1.9
2016-Dec-06 15:00N 43°36' W 066°48'1312.8 330 / 111016.8 1.8-0.5
2016-Dec-06 14:00N 43°24' W 066°42'1110.6 360 / 101016.3 2.8 2.0
2016-Dec-06 13:00N 43°18' W 066°30'1514.8 040 / 161015.9 2.9 1.6
2016-Dec-06 12:00N 43°06' W 066°18'1514.9 040 / 191014.4 2.5 2.1
2016-Dec-06 11:00N 42°54' W 066°06'1313.2 060 / 201013.0 3.6 3.1
2016-Dec-06 10:00N 42°54' W 065°48'1313.2 070 / 131012.5 3.8 3.4
2016-Dec-06 09:00N 42°54' W 065°30'1514.9 080 / 91012.2 3.2 2.1
2016-Dec-06 08:00N 43°06' W 065°18'1817.8 060 / 111011.7 3.3 0.1
2016-Dec-06 07:00N 43°18' W 065°00'1110.6 050 / 91011.4 3.1-0.1
2016-Dec-06 06:00N 43°24' W 064°48'1514.8 040 / 81011.8 2.8-1.0
2016-Dec-06 05:00N 43°36' W 064°36'1817.7 360 / 81012.3 2.1-1.6
2016-Dec-06 04:00N 43°48' W 064°18'1110.5 320 / 91012.9 2.1-3.2
2016-Dec-06 03:00N 43°54' W 064°06'1817.7 350 / 51013.5 1.7-3.5
2016-Dec-06 02:00N 44°06' W 063°48'1514.8 030 / 51013.6 1.2-4.1
2016-Dec-06 01:00N 44°18' W 063°36'7 7.4 020 / 51014.1 0.4-4.8
2016-Dec-06 00:00N 44°24' W 063°30'1312.7 010 / 51014.6 -0.3-6.0
2016-Dec-05 23:00N 44°36' W 063°36'6 6.0 360 / 51015.5 -1.2-6.4
2016-Dec-05 22:00N 44°42' W 063°36'0 0.0 280 / 41015.6 -1.1-6.3
2016-Dec-05 21:00N 44°42' W 063°36'0 0.0 350 / 31015.6 -0.6-6.3
2016-Dec-05 20:00N 44°42' W 063°36'0 0.0 350 / 31015.6 -0.6-7.1
2016-Dec-05 19:00N 44°42' W 063°36'0 0.0 350 / 31015.4 -0.7-7.3
2016-Dec-05 18:00N 44°42' W 063°36'0 0.0 350 / 41015.7 -0.6-6.8
2016-Dec-05 17:00N 44°42' W 063°36'0 0.0 350 / 31016.0 -1.0-7.3
2016-Dec-05 16:00N 44°42' W 063°36'0 0.0 360 / 41016.9 -1.3-7.0
2016-Dec-05 15:00N 44°42' W 063°36'0 0.0 320 / 21017.9 -1.2-6.1
2016-Dec-05 14:00N 44°42' W 063°36'0 0.0 340 / 31018.6 -1.8-5.6
2016-Dec-05 13:00N 44°42' W 063°36'0 0.0 310 / 31018.2 -2.8-5.9
2016-Dec-05 12:00N 44°42' W 063°36'0 0.0 330 / 41017.6 -2.9-6.2
2016-Dec-05 11:00N 44°42' W 063°36'1312.7 350 / 91017.5 -2.6-6.1
2016-Dec-05 10:00N 44°30' W 063°30'1312.7 270 / 111017.0 -2.4-5.9
2016-Dec-05 09:00N 44°18' W 063°24'1010.5 300 / 171017.6 -1.7-5.8
2016-Dec-05 08:00N 44°12' W 063°36'1010.5 310 / 151017.6 -0.8-5.3
2016-Dec-05 07:00N 44°06' W 063°48'7 7.4 310 / 131018.0 -0.5-5.0
2016-Dec-05 06:00N 44°00' W 063°54'1110.5 320 / 121017.9 -0.6-5.0
2016-Dec-05 05:00N 43°54' W 064°06'1110.5 320 / 111018.2 -0.5-4.5
2016-Dec-05 04:00N 43°48' W 064°18'1110.5 330 / 151018.6 -0.7-5.2
2016-Dec-05 03:00N 43°42' W 064°30'1110.6 320 / 151018.8 -0.2-5.1
2016-Dec-05 02:00N 43°36' W 064°42'7 7.4 320 / 141018.8 -0.0-4.8
2016-Dec-05 01:00N 43°30' W 064°48'1110.6 330 / 151018.5 0.2-4.3
2016-Dec-05 00:00N 43°24' W 065°00'1110.6 340 / 201018.2 0.1-5.1
2016-Dec-04 23:00N 43°18' W 065°12'1514.8 330 / 211018.0 0.4-3.6
2016-Dec-04 22:00N 43°06' W 065°24'1110.6 330 / 241017.6 0.9-3.3
2016-Dec-04 21:00N 43°00' W 065°36'1414.5 340 / 251017.1 1.7-1.9
2016-Dec-04 20:00N 43°06' W 065°54'1414.4 350 / 221016.8 1.9-0.6
2016-Dec-04 19:00N 43°12' W 066°12'1312.8 330 / 231016.7 1.8-0.0
2016-Dec-04 18:00N 43°24' W 066°18'2512.5 340 / 131015.7 1.7-1.8
2016-Dec-04 16:00N 43°06' W 065°54'1514.9 350 / 191014.8 2.6-0.5
2016-Dec-04 15:00N 42°54' W 065°42'1817.8 330 / 221015.2 1.9 1.0
2016-Dec-04 14:00N 43°06' W 065°24'1110.6 350 / 241014.5 2.7-0.3
2016-Dec-04 13:00N 43°12' W 065°12'1817.8 350 / 241013.9 2.2 0.2
2016-Dec-04 12:00N 43°24' W 064°54'1110.6 340 / 221013.0 2.4 0.3
2016-Dec-04 11:00N 43°30' W 064°42'7 7.4 350 / 221012.0 2.9 0.3
2016-Dec-04 10:00N 43°36' W 064°36'0 0.0 350 / 211011.3 2.7 0.6
2016-Dec-04 09:00N 43°36' W 064°36'0 0.0 350 / 211010.7 2.8 0.4
2016-Dec-04 08:00N 43°36' W 064°36'6 6.0 350 / 221010.1 2.5 0.4
2016-Dec-04 07:00N 43°42' W 064°36'0 0.0 350 / 221009.7 2.7 0.6
2016-Dec-04 06:00N 43°42' W 064°36'0 0.0 350 / 231008.9 2.9 0.9
2016-Dec-04 05:00N 43°42' W 064°36'0 0.0 340 / 251008.1 2.8 0.7
2016-Dec-04 04:00N 43°42' W 064°36'6 6.0 350 / 231007.8 3.0 1.0
2016-Dec-04 03:00N 43°48' W 064°36'0 0.0 340 / 231007.3 3.0 1.6
2016-Dec-04 02:00N 43°48' W 064°36'1212.0 350 / 201006.3 3.2 1.7
2016-Dec-04 01:00N 43°36' W 064°36'0 0.0 340 / 221005.8 3.7 2.1
2016-Dec-04 00:00N 43°36' W 064°36'0 0.0 330 / 251005.7 3.7 1.9
2016-Dec-03 23:00N 43°36' W 064°36'0 0.0 320 / 231005.2 3.8 1.7
2016-Dec-03 22:00N 43°36' W 064°36'0 0.0 320 / 221004.5 4.3 1.2
2016-Dec-03 21:00N 43°36' W 064°36'0 0.0 320 / 211004.0 4.8 1.0
2016-Dec-03 20:00N 43°36' W 064°36'0 0.0 010 / 131003.3 5.0 1.0
2016-Dec-03 19:00N 43°36' W 064°36'0 0.0 340 / 161002.5 4.5 1.3
2016-Dec-03 18:00N 43°36' W 064°36'0 0.0 340 / 141002.0 4.7 1.3
2016-Dec-03 17:00N 43°36' W 064°36'0 0.0 340 / 121001.9 4.4 0.7
2016-Dec-03 16:00N 43°36' W 064°36'0 0.0 340 / 131001.9 4.0 1.0
2016-Dec-03 15:00N 43°36' W 064°36'7 7.4 360 / 141002.0 3.6 0.5
2016-Dec-03 14:00N 43°42' W 064°42'1312.8 010 / 151002.2 4.0 1.0
2016-Dec-03 13:00N 43°54' W 064°36'7 7.4 350 / 101002.3 1.9 1.0
2016-Dec-03 12:00N 44°00' W 064°42'0 0.0 330 / 21002.1 -0.0-0.1
2016-Dec-03 11:00N 44°00' W 064°42'0 0.0 300 / 21002.1 0.2-0.0
2016-Dec-03 10:00N 44°00' W 064°42'0 0.0 350 / 41001.8 1.1 0.9
2016-Dec-03 09:00N 44°00' W 064°42'0 0.0 310 / 21001.9 1.1 0.9
2016-Dec-03 08:00N 44°00' W 064°42'0 0.0 310 / 31002.1 0.7 0.6
2016-Dec-03 07:00N 44°00' W 064°42'0 0.0 310 / 31002.4 1.3 1.2
2016-Dec-03 06:00N 44°00' W 064°42'0 0.0 320 / 31002.3 2.0 1.8
2016-Dec-03 05:00N 44°00' W 064°42'0 0.0 300 / 31002.3 2.5 2.4
2016-Dec-03 04:00N 44°00' W 064°42'0 0.0 310 / 31002.9 2.5 2.3
2016-Dec-03 03:00N 44°00' W 064°42'0 0.0 320 / 41003.1 2.4 2.2
2016-Dec-03 02:00N 44°00' W 064°42'0 0.0 300 / 51003.3 2.6 2.3
2016-Dec-03 01:00N 44°00' W 064°42'0 0.0 290 / 41003.5 3.1 2.5
2016-Dec-03 00:00N 44°00' W 064°42'0 0.0 270 / 51003.8 3.4 2.2
2016-Dec-02 23:00N 44°00' W 064°42'0 0.0 270 / 61003.7 4.4 1.9
2016-Dec-02 22:00N 44°00' W 064°42'0 0.0 270 / 81003.7 4.5 1.4
2016-Dec-02 21:00N 44°00' W 064°42'0 0.0 290 / 121003.4 5.3 1.1
2016-Dec-02 19:00N 44°00' W 064°42'7 7.4 290 / 161002.3 7.0-0.0
2016-Dec-02 18:00N 43°54' W 064°36'1312.8 290 / 201001.6 6.8 1.7
2016-Dec-02 17:00N 43°42' W 064°42'1110.6 290 / 211002.4 7.4 2.9
2016-Dec-02 16:00N 43°36' W 064°54'1313.0 280 / 211003.0 7.1 3.4
2016-Dec-02 15:00N 43°36' W 065°12'7 7.4 300 / 181003.6 7.3 3.2
2016-Dec-02 14:00N 43°42' W 065°18'0 0.0 290 / 131003.3 6.7 3.6
2016-Dec-02 13:00N 43°42' W 065°18'0 0.0 280 / 111003.0 6.2 3.6
2016-Dec-02 12:00N 43°42' W 065°18'0 0.0 290 / 91002.5 6.4 4.0
2016-Dec-02 11:00N 43°42' W 065°18'0 0.0 300 / 91001.6 6.6 4.3
2016-Dec-02 10:00N 43°42' W 065°18'0 0.0 290 / 81000.6 6.7 4.4
2016-Dec-02 09:00N 43°42' W 065°18'0 0.0 270 / 81000.2 6.3 5.0
2016-Dec-02 08:00N 43°42' W 065°18'0 0.0 270 / 101000.1 6.5 5.6
2016-Dec-02 07:00N 43°42' W 065°18'0 0.0 260 / 10999.8 6.3 5.6
2016-Dec-02 06:00N 43°42' W 065°18'0 0.0 260 / 10999.0 5.8 5.4
2016-Dec-02 05:00N 43°42' W 065°18'0 0.0 270 / 11998.4 5.7 4.9
2016-Dec-02 04:00N 43°42' W 065°18'0 0.0 280 / 15998.1 5.6 4.7
2016-Dec-02 03:00N 43°42' W 065°18'0 0.0 290 / 17997.0 5.9 4.7
2016-Dec-02 02:00N 43°42' W 065°18'0 0.0 290 / 18995.7 6.0 4.9
2016-Dec-02 01:00N 43°42' W 065°18'0 0.0 280 / 18995.1 6.5 6.3
2016-Dec-02 00:00N 43°42' W 065°18'0 0.0 280 / 15994.4 7.0 6.9
2016-Dec-01 23:00N 43°42' W 065°18'0 0.0 270 / 13994.0 8.0 7.9
2016-Dec-01 22:00N 43°42' W 065°18'6 6.0 250 / 15993.7 9.1 9.0
2016-Dec-01 21:00N 43°36' W 065°18'1212.0 250 / 24993.7 9.4 9.3
2016-Dec-01 20:00N 43°24' W 065°18'7 7.4 250 / 24993.9 10.310.2
2016-Dec-01 19:00N 43°18' W 065°24'1110.6 220 / 17993.8 11.311.3
2016-Dec-01 18:00N 43°12' W 065°36'4 4.4 220 / 18994.0 11.611.5
2016-Dec-01 17:00N 43°12' W 065°42'6 6.0 180 / 14994.4 11.511.5
2016-Dec-01 16:00N 43°18' W 065°42'1313.1 120 / 22996.7 10.110.0
2016-Dec-01 15:00N 43°18' W 065°24'2412.2 100 / 291000.0 8.9 8.8
2016-Dec-01 13:00N 43°42' W 065°18'0 0.0 090 / 191005.2 7.1 7.0
2016-Dec-01 12:00N 43°42' W 065°18'0 0.0 100 / 181007.8 7.1 6.9
2016-Dec-01 11:00N 43°42' W 065°18'0 0.0 090 / 191010.0 6.9 6.7
2016-Dec-01 10:00N 43°42' W 065°18'0 0.0 100 / 151011.3 6.8 6.6
2016-Dec-01 09:00N 43°42' W 065°18'0 0.0 110 / 141011.2 6.7 6.0
2016-Dec-01 07:00N 43°42' W 065°18'0 0.0 090 / 111014.8 6.5 5.5
2016-Dec-01 06:00N 43°42' W 065°18'0 0.0 100 / 121015.4 6.1 5.2
2016-Dec-01 05:00N 43°42' W 065°18'0 0.0 070 / 111016.5 5.3 4.8
2016-Dec-01 04:00N 43°42' W 065°18'0 0.0 090 / 101016.9 4.9 4.5
2016-Dec-01 03:00N 43°42' W 065°18'0 0.0 090 / 101018.2 4.9 4.0
2016-Dec-01 01:00N 43°42' W 065°18'0 0.0 040 / 81019.2 3.3 3.0
2016-Dec-01 00:00N 43°42' W 065°18'0 0.0 050 / 81019.6 3.6 2.9
2016-Nov-30 23:00N 43°42' W 065°18'0 0.0 050 / 101019.0 4.3 3.6
2016-Nov-30 22:00N 43°42' W 065°18'0 0.0 080 / 61018.2 5.5 4.2
2016-Nov-30 21:00N 43°42' W 065°18'0 0.0 030 / 61017.0 5.1 4.0
2016-Nov-30 20:00N 43°42' W 065°18'0 0.0 060 / 71016.6 5.1 4.0
2016-Nov-30 19:00N 43°42' W 065°18'0 0.0 030 / 111015.2 4.6 3.8
2016-Nov-30 18:00N 43°42' W 065°18'0 0.0 360 / 151013.7 4.9 4.3
2016-Nov-30 17:00N 43°42' W 065°18'0 0.0 340 / 141012.9 6.3 5.9
2016-Nov-30 16:00N 43°42' W 065°18'0 0.0 330 / 161011.7 9.2 7.3
2016-Nov-30 15:00N 43°42' W 065°18'0 0.0 320 / 181010.3 10.1 9.0
2016-Nov-30 14:00N 43°42' W 065°18'0 0.0 290 / 101008.4 10.610.4
2016-Nov-30 13:00N 43°42' W 065°18'7 7.4 260 / 191007.1 10.410.3
2016-Nov-30 12:00N 43°36' W 065°12'1312.8 250 / 221006.9 10.510.5
2016-Nov-30 11:00N 43°24' W 065°06'2010.0 240 / 251007.3 10.910.8
2016-Nov-30 09:00N 43°06' W 064°54'6 6.0 170 / 231009.6 10.610.5
2016-Nov-30 08:00N 43°00' W 064°54'4 4.4 170 / 321011.1 9.9 9.8
2016-Nov-30 07:00N 43°00' W 064°48'6 6.0 150 / 311013.8 9.4 9.1
2016-Nov-30 06:00N 42°54' W 064°48'0 0.0 150 / 301016.4 8.8 8.1
2016-Nov-30 05:00N 42°54' W 064°48'0 0.0 150 / 271018.5 8.0 7.1
2016-Nov-30 04:00N 42°54' W 064°48'4 4.4 140 / 241019.8 7.6 5.8
2016-Nov-30 03:00N 42°54' W 064°42'9 8.8 150 / 201021.3 7.3 5.7
2016-Nov-30 02:00N 42°54' W 064°54'1313.2 150 / 201021.8 7.1 5.3
2016-Nov-30 01:00N 42°54' W 065°12'7 7.4 160 / 171022.8 7.7 4.8
2016-Nov-30 00:00N 42°48' W 065°18'6 6.0 160 / 111024.3 7.8 4.9
2016-Nov-29 23:00N 42°42' W 065°18'1514.5 160 / 51024.2 7.4 4.0
2016-Nov-29 22:00N 42°48' W 065°36'1414.5 210 / 51023.6 7.5 4.2
2016-Nov-29 21:00N 42°54' W 065°54'9 8.8 200 / 101024.5 7.6 4.3
2016-Nov-29 20:00N 42°54' W 066°06'4 4.4 190 / 61024.6 7.3 4.0
2016-Nov-29 19:00N 42°54' W 066°12'4 4.4 200 / 81024.7 7.1 3.6
2016-Nov-29 18:00N 42°54' W 066°18'6 6.0 190 / 71023.9 6.9 2.6
2016-Nov-29 17:00N 43°00' W 066°18'6 6.0 100 / 31024.1 6.4 2.9
2016-Nov-29 16:00N 43°06' W 066°18'4 4.4 050 / 21024.5 6.1 2.6
2016-Nov-29 15:00N 43°06' W 066°24'6 6.0 240 / 41025.6 6.3 2.5
2016-Nov-29 14:00N 43°12' W 066°24'1110.6 350 / 41025.0 5.7 2.0
2016-Nov-29 13:00N 43°18' W 066°12'4 4.4 300 / 81025.3 5.5 2.0
2016-Nov-29 12:00N 43°18' W 066°06'0 0.0 340 / 71024.3 5.3 1.5
2016-Nov-29 11:00N 43°18' W 066°06'6 6.0 320 / 81023.7 4.6 0.7
2016-Nov-29 10:00N 43°12' W 066°06'0 0.0 330 / 101023.5 4.7 1.0
2016-Nov-29 09:00N 43°12' W 066°06'6 6.0 320 / 101022.9 4.7 0.8
2016-Nov-29 08:00N 43°18' W 066°06'0 0.0 310 / 131022.3 4.5 1.0
2016-Nov-29 07:00N 43°18' W 066°06'9 8.7 340 / 161021.8 5.0 1.2
2016-Nov-29 06:00N 43°18' W 065°54'9 8.7 330 / 211020.5 5.1 1.0
2016-Nov-29 05:00N 43°18' W 065°42'4 4.4 330 / 201019.9 5.4 1.3
2016-Nov-29 04:00N 43°18' W 065°36'4 4.4 340 / 221019.2 5.4 1.6
2016-Nov-29 03:00N 43°18' W 065°30'7 7.4 330 / 211018.8 5.7 1.7
2016-Nov-29 02:00N 43°24' W 065°24'7 7.4 320 / 231018.3 6.0 2.1
2016-Nov-29 01:00N 43°30' W 065°18'   320 / 221017.1 5.8 2.1
Track history (hours):
 
Tides and Currents Weather Stations Pressure Air Temp Water Temp Dewpoint Dewpoint Depression Visibility Wind Speed Wind Dir Waves Ship Positions

Edward Cornwallis

Last reported at 2016-Dec-09 01:00 UTC. Time now 2016-Dec-09 02:05 UTC.
Position N 43°06' W 066°18'.

Length 83 m; draft 6 m.

Type: SAR. MMSI: 316020000.

Wind from 300 at 27 knots

Barometer 1005.2 mb
Air temperature 4.7 ° C
Dewpoint 2.8 ° C

Date/timePositionNaut miles runAvg speedWind from/ knotsBaromVisibWave heightAir tempDewpointWater temp
2016-Dec-09 01:00N 43°06' W 066°18'1312.8 300 / 271005.2 4.7 2.8
2016-Dec-09 00:00N 43°18' W 066°24'1110.6 290 / 181005.7 4.5 3.5
2016-Dec-08 23:00N 43°24' W 066°36'1514.8 280 / 201005.7 5.0 3.4
2016-Dec-08 22:00N 43°36' W 066°48'1312.8 270 / 211005.6 5.8 2.7
2016-Dec-08 21:00N 43°48' W 066°54'1110.5 270 / 201005.4 6.2 1.3
2016-Dec-08 20:00N 43°54' W 067°06'1818.0 260 / 221006.0 6.5 1.3
2016-Dec-08 19:00N 44°12' W 067°06'1212.0 280 / 101006.7 5.9 0.2
2016-Dec-08 18:00N 44°24' W 067°06'6 6.0 320 / 31007.7 5.6 1.0
2016-Dec-08 17:00N 44°30' W 067°06'0 0.0 130 / 31008.8 5.3 0.1
2016-Dec-08 16:00N 44°30' W 067°06'0 0.0 140 / 41010.2 5.2 0.6
2016-Dec-08 15:00N 44°30' W 067°06'0 0.0 060 / 41010.9 5.0 0.7
2016-Dec-08 14:00N 44°30' W 067°06'0 0.0 360 / 81011.6 4.1 0.8
2016-Dec-08 13:00N 44°30' W 067°06'0 0.0 340 / 81011.7 4.6 0.6
2016-Dec-08 12:00N 44°30' W 067°06'0 0.0 340 / 51011.7 4.0 2.1
2016-Dec-08 11:00N 44°30' W 067°06'0 0.0 360 / 51011.9 4.5-0.7
2016-Dec-08 10:00N 44°30' W 067°06'0 0.0 340 / 61012.0 4.6 0.7
2016-Dec-08 09:00N 44°30' W 067°06'0 0.0 320 / 111012.1 4.6 3.7
2016-Dec-08 08:00N 44°30' W 067°06'0 0.0 320 / 91012.4 5.4 4.2
2016-Dec-08 07:00N 44°30' W 067°06'0 0.0 320 / 51013.0 5.3 4.7
2016-Dec-08 06:00N 44°30' W 067°06'0 0.0 200 / 121013.4 5.7 4.0
2016-Dec-08 05:00N 44°30' W 067°06'0 0.0 200 / 121014.0 5.4 3.7
2016-Dec-08 04:00N 44°30' W 067°06'0 0.0 200 / 101014.2 5.4 3.1
2016-Dec-08 03:00N 44°30' W 067°06'0 0.0 220 / 121014.9 5.4 2.5
2016-Dec-08 02:00N 44°30' W 067°06'0 0.0 200 / 51015.2 4.7 1.4
2016-Dec-08 01:00N 44°30' W 067°06'0 0.0 190 / 31015.1 4.1-0.0
2016-Dec-08 00:00N 44°30' W 067°06'0 0.0 180 / 81015.5 3.4-0.0
2016-Dec-07 23:00N 44°30' W 067°06'0 0.0 170 / 21015.3 2.6-0.1
2016-Dec-07 22:00N 44°30' W 067°06'0 0.0 260 / 31014.9 1.7-0.7
2016-Dec-07 21:00N 44°30' W 067°06'0 0.0 220 / 21014.9 1.0-0.4
2016-Dec-07 20:00N 44°30' W 067°06'0 0.0 310 / 51015.1 0.9-0.6
2016-Dec-07 19:00N 44°30' W 067°06'0 0.0 330 / 71015.2 0.6-1.0
2016-Dec-07 18:00N 44°30' W 067°06'0 0.0 310 / 51015.3 0.8-0.8
2016-Dec-07 17:00N 44°30' W 067°06'0 0.0 010 / 31015.4 0.8-0.6
2016-Dec-07 16:00N 44°30' W 067°06'0 0.0 360 / 51016.2 0.9-1.3
2016-Dec-07 15:00N 44°30' W 067°06'0 0.0 030 / 31017.0 0.3-2.5
2016-Dec-07 14:00N 44°30' W 067°06'0 0.0 040 / 71016.2 -0.2-1.9
2016-Dec-07 13:00N 44°30' W 067°06'0 0.0 010 / 81016.4 -0.9-2.0
2016-Dec-07 12:00N 44°30' W 067°06'0 0.0 010 / 91015.8 -1.0-2.1
2016-Dec-07 11:00N 44°30' W 067°06'0 0.0 020 / 61016.0 -0.9-2.2
2016-Dec-07 10:00N 44°30' W 067°06'0 0.0 030 / 71016.1 -1.3-2.5
2016-Dec-07 09:00N 44°30' W 067°06'0 0.0 350 / 71016.9 -1.3-2.7
2016-Dec-07 08:00N 44°30' W 067°06'0 0.0 010 / 111016.4 -0.9-2.1
2016-Dec-07 07:00N 44°30' W 067°06'0 0.0 020 / 81016.4 -0.4-2.0
2016-Dec-07 06:00N 44°30' W 067°06'0 0.0 020 / 51016.7 -1.0-2.9
2016-Dec-07 05:00N 44°30' W 067°06'0 0.0 010 / 91017.4 -1.0-3.0
2016-Dec-07 04:00N 44°30' W 067°06'0 0.0 020 / 111018.0 -0.8-3.2
2016-Dec-07 03:00N 44°30' W 067°06'0 0.0 360 / 111017.9 -1.2-3.8
2016-Dec-07 02:00N 44°30' W 067°06'0 0.0 010 / 141017.4 -1.4-4.0
2016-Dec-07 01:00N 44°30' W 067°06'0 0.0 360 / 121018.6 -1.6-4.3
2016-Dec-07 00:00N 44°30' W 067°06'0 0.0 330 / 101018.5 -1.5-4.3
2016-Dec-06 23:00N 44°30' W 067°06'0 0.0 340 / 121018.1 -1.6-4.5
2016-Dec-06 22:00N 44°30' W 067°06'0 0.0 330 / 131018.0 -1.8-4.5
2016-Dec-06 21:00N 44°30' W 067°06'0 0.0 330 / 141017.7 -1.9-4.9
2016-Dec-06 20:00N 44°30' W 067°06'0 0.0 350 / 121017.6 -1.5-3.8
2016-Dec-06 19:00N 44°30' W 067°06'1312.7 360 / 111017.4 -1.2-3.5
2016-Dec-06 18:00N 44°18' W 067°00'1312.7 340 / 61016.9 -1.0-3.0
2016-Dec-06 17:00N 44°06' W 066°54'1818.0 340 / 51016.8 -0.4-2.4
2016-Dec-06 16:00N 43°48' W 066°54'1312.8 330 / 61017.2 0.6-1.9
2016-Dec-06 15:00N 43°36' W 066°48'1312.8 330 / 111016.8 1.8-0.5
2016-Dec-06 14:00N 43°24' W 066°42'1110.6 360 / 101016.3 2.8 2.0
2016-Dec-06 13:00N 43°18' W 066°30'1514.8 040 / 161015.9 2.9 1.6
2016-Dec-06 12:00N 43°06' W 066°18'1514.9 040 / 191014.4 2.5 2.1
2016-Dec-06 11:00N 42°54' W 066°06'1313.2 060 / 201013.0 3.6 3.1
2016-Dec-06 10:00N 42°54' W 065°48'1313.2 070 / 131012.5 3.8 3.4
2016-Dec-06 09:00N 42°54' W 065°30'1514.9 080 / 91012.2 3.2 2.1
2016-Dec-06 08:00N 43°06' W 065°18'1817.8 060 / 111011.7 3.3 0.1
2016-Dec-06 07:00N 43°18' W 065°00'1110.6 050 / 91011.4 3.1-0.1
2016-Dec-06 06:00N 43°24' W 064°48'1514.8 040 / 81011.8 2.8-1.0
2016-Dec-06 05:00N 43°36' W 064°36'1817.7 360 / 81012.3 2.1-1.6
2016-Dec-06 04:00N 43°48' W 064°18'1110.5 320 / 91012.9 2.1-3.2
2016-Dec-06 03:00N 43°54' W 064°06'1817.7 350 / 51013.5 1.7-3.5
2016-Dec-06 02:00N 44°06' W 063°48'1514.8 030 / 51013.6 1.2-4.1
2016-Dec-06 01:00N 44°18' W 063°36'7 7.4 020 / 51014.1 0.4-4.8
2016-Dec-06 00:00N 44°24' W 063°30'1312.7 010 / 51014.6 -0.3-6.0
2016-Dec-05 23:00N 44°36' W 063°36'6 6.0 360 / 51015.5 -1.2-6.4
2016-Dec-05 22:00N 44°42' W 063°36'0 0.0 280 / 41015.6 -1.1-6.3
2016-Dec-05 21:00N 44°42' W 063°36'0 0.0 350 / 31015.6 -0.6-6.3
2016-Dec-05 20:00N 44°42' W 063°36'0 0.0 350 / 31015.6 -0.6-7.1
2016-Dec-05 19:00N 44°42' W 063°36'0 0.0 350 / 31015.4 -0.7-7.3
2016-Dec-05 18:00N 44°42' W 063°36'0 0.0 350 / 41015.7 -0.6-6.8
2016-Dec-05 17:00N 44°42' W 063°36'0 0.0 350 / 31016.0 -1.0-7.3
2016-Dec-05 16:00N 44°42' W 063°36'0 0.0 360 / 41016.9 -1.3-7.0
2016-Dec-05 15:00N 44°42' W 063°36'0 0.0 320 / 21017.9 -1.2-6.1
2016-Dec-05 14:00N 44°42' W 063°36'0 0.0 340 / 31018.6 -1.8-5.6
2016-Dec-05 13:00N 44°42' W 063°36'0 0.0 310 / 31018.2 -2.8-5.9
2016-Dec-05 12:00N 44°42' W 063°36'0 0.0 330 / 41017.6 -2.9-6.2
2016-Dec-05 11:00N 44°42' W 063°36'1312.7 350 / 91017.5 -2.6-6.1
2016-Dec-05 10:00N 44°30' W 063°30'1312.7 270 / 111017.0 -2.4-5.9
2016-Dec-05 09:00N 44°18' W 063°24'1010.5 300 / 171017.6 -1.7-5.8
2016-Dec-05 08:00N 44°12' W 063°36'1010.5 310 / 151017.6 -0.8-5.3
2016-Dec-05 07:00N 44°06' W 063°48'7 7.4 310 / 131018.0 -0.5-5.0
2016-Dec-05 06:00N 44°00' W 063°54'1110.5 320 / 121017.9 -0.6-5.0
2016-Dec-05 05:00N 43°54' W 064°06'1110.5 320 / 111018.2 -0.5-4.5
2016-Dec-05 04:00N 43°48' W 064°18'1110.5 330 / 151018.6 -0.7-5.2
2016-Dec-05 03:00N 43°42' W 064°30'1110.6 320 / 151018.8 -0.2-5.1
2016-Dec-05 02:00N 43°36' W 064°42'7 7.4 320 / 141018.8 -0.0-4.8
2016-Dec-05 01:00N 43°30' W 064°48'1110.6 330 / 151018.5 0.2-4.3
2016-Dec-05 00:00N 43°24' W 065°00'1110.6 340 / 201018.2 0.1-5.1
2016-Dec-04 23:00N 43°18' W 065°12'1514.8 330 / 211018.0 0.4-3.6
2016-Dec-04 22:00N 43°06' W 065°24'1110.6 330 / 241017.6 0.9-3.3
2016-Dec-04 21:00N 43°00' W 065°36'1414.5 340 / 251017.1 1.7-1.9
2016-Dec-04 20:00N 43°06' W 065°54'1414.4 350 / 221016.8 1.9-0.6
2016-Dec-04 19:00N 43°12' W 066°12'1312.8 330 / 231016.7 1.8-0.0
2016-Dec-04 18:00N 43°24' W 066°18'2512.5 340 / 131015.7 1.7-1.8
2016-Dec-04 16:00N 43°06' W 065°54'1514.9 350 / 191014.8 2.6-0.5
2016-Dec-04 15:00N 42°54' W 065°42'1817.8 330 / 221015.2 1.9 1.0
2016-Dec-04 14:00N 43°06' W 065°24'1110.6 350 / 241014.5 2.7-0.3
2016-Dec-04 13:00N 43°12' W 065°12'1817.8 350 / 241013.9 2.2 0.2
2016-Dec-04 12:00N 43°24' W 064°54'1110.6 340 / 221013.0 2.4 0.3
2016-Dec-04 11:00N 43°30' W 064°42'7 7.4 350 / 221012.0 2.9 0.3
2016-Dec-04 10:00N 43°36' W 064°36'0 0.0 350 / 211011.3 2.7 0.6
2016-Dec-04 09:00N 43°36' W 064°36'0 0.0 350 / 211010.7 2.8 0.4
2016-Dec-04 08:00N 43°36' W 064°36'6 6.0 350 / 221010.1 2.5 0.4
2016-Dec-04 07:00N 43°42' W 064°36'0 0.0 350 / 221009.7 2.7 0.6
2016-Dec-04 06:00N 43°42' W 064°36'0 0.0 350 / 231008.9 2.9 0.9
2016-Dec-04 05:00N 43°42' W 064°36'0 0.0 340 / 251008.1 2.8 0.7
2016-Dec-04 04:00N 43°42' W 064°36'6 6.0 350 / 231007.8 3.0 1.0
2016-Dec-04 03:00N 43°48' W 064°36'0 0.0 340 / 231007.3 3.0 1.6
2016-Dec-04 02:00N 43°48' W 064°36'1212.0 350 / 201006.3 3.2 1.7
2016-Dec-04 01:00N 43°36' W 064°36'0 0.0 340 / 221005.8 3.7 2.1
2016-Dec-04 00:00N 43°36' W 064°36'0 0.0 330 / 251005.7 3.7 1.9
2016-Dec-03 23:00N 43°36' W 064°36'0 0.0 320 / 231005.2 3.8 1.7
2016-Dec-03 22:00N 43°36' W 064°36'0 0.0 320 / 221004.5 4.3 1.2
2016-Dec-03 21:00N 43°36' W 064°36'0 0.0 320 / 211004.0 4.8 1.0
2016-Dec-03 20:00N 43°36' W 064°36'0 0.0 010 / 131003.3 5.0 1.0
2016-Dec-03 19:00N 43°36' W 064°36'0 0.0 340 / 161002.5 4.5 1.3
2016-Dec-03 18:00N 43°36' W 064°36'0 0.0 340 / 141002.0 4.7 1.3
2016-Dec-03 17:00N 43°36' W 064°36'0 0.0 340 / 121001.9 4.4 0.7
2016-Dec-03 16:00N 43°36' W 064°36'0 0.0 340 / 131001.9 4.0 1.0
2016-Dec-03 15:00N 43°36' W 064°36'7 7.4 360 / 141002.0 3.6 0.5
2016-Dec-03 14:00N 43°42' W 064°42'1312.8 010 / 151002.2 4.0 1.0
2016-Dec-03 13:00N 43°54' W 064°36'7 7.4 350 / 101002.3 1.9 1.0
2016-Dec-03 12:00N 44°00' W 064°42'0 0.0 330 / 21002.1 -0.0-0.1
2016-Dec-03 11:00N 44°00' W 064°42'0 0.0 300 / 21002.1 0.2-0.0
2016-Dec-03 10:00N 44°00' W 064°42'0 0.0 350 / 41001.8 1.1 0.9
2016-Dec-03 09:00N 44°00' W 064°42'0 0.0 310 / 21001.9 1.1 0.9
2016-Dec-03 08:00N 44°00' W 064°42'0 0.0 310 / 31002.1 0.7 0.6
2016-Dec-03 07:00N 44°00' W 064°42'0 0.0 310 / 31002.4 1.3 1.2
2016-Dec-03 06:00N 44°00' W 064°42'0 0.0 320 / 31002.3 2.0 1.8
2016-Dec-03 05:00N 44°00' W 064°42'0 0.0 300 / 31002.3 2.5 2.4
2016-Dec-03 04:00N 44°00' W 064°42'0 0.0 310 / 31002.9 2.5 2.3
2016-Dec-03 03:00N 44°00' W 064°42'0 0.0 320 / 41003.1 2.4 2.2
2016-Dec-03 02:00N 44°00' W 064°42'0 0.0 300 / 51003.3 2.6 2.3
2016-Dec-03 01:00N 44°00' W 064°42'0 0.0 290 / 41003.5 3.1 2.5
2016-Dec-03 00:00N 44°00' W 064°42'0 0.0 270 / 51003.8 3.4 2.2
2016-Dec-02 23:00N 44°00' W 064°42'0 0.0 270 / 61003.7 4.4 1.9
2016-Dec-02 22:00N 44°00' W 064°42'0 0.0 270 / 81003.7 4.5 1.4
2016-Dec-02 21:00N 44°00' W 064°42'0 0.0 290 / 121003.4 5.3 1.1
2016-Dec-02 19:00N 44°00' W 064°42'7 7.4 290 / 161002.3 7.0-0.0
2016-Dec-02 18:00N 43°54' W 064°36'1312.8 290 / 201001.6 6.8 1.7
2016-Dec-02 17:00N 43°42' W 064°42'1110.6 290 / 211002.4 7.4 2.9
2016-Dec-02 16:00N 43°36' W 064°54'1313.0 280 / 211003.0 7.1 3.4
2016-Dec-02 15:00N 43°36' W 065°12'7 7.4 300 / 181003.6 7.3 3.2
2016-Dec-02 14:00N 43°42' W 065°18'0 0.0 290 / 131003.3 6.7 3.6
2016-Dec-02 13:00N 43°42' W 065°18'0 0.0 280 / 111003.0 6.2 3.6
2016-Dec-02 12:00N 43°42' W 065°18'0 0.0 290 / 91002.5 6.4 4.0
2016-Dec-02 11:00N 43°42' W 065°18'0 0.0 300 / 91001.6 6.6 4.3
2016-Dec-02 10:00N 43°42' W 065°18'0 0.0 290 / 81000.6 6.7 4.4
2016-Dec-02 09:00N 43°42' W 065°18'0 0.0 270 / 81000.2 6.3 5.0
2016-Dec-02 08:00N 43°42' W 065°18'0 0.0 270 / 101000.1 6.5 5.6
2016-Dec-02 07:00N 43°42' W 065°18'0 0.0 260 / 10999.8 6.3 5.6
2016-Dec-02 06:00N 43°42' W 065°18'0 0.0 260 / 10999.0 5.8 5.4
2016-Dec-02 05:00N 43°42' W 065°18'0 0.0 270 / 11998.4 5.7 4.9
2016-Dec-02 04:00N 43°42' W 065°18'0 0.0 280 / 15998.1 5.6 4.7
2016-Dec-02 03:00N 43°42' W 065°18'0 0.0 290 / 17997.0 5.9 4.7
2016-Dec-02 02:00N 43°42' W 065°18'0 0.0 290 / 18995.7 6.0 4.9
2016-Dec-02 01:00N 43°42' W 065°18'0 0.0 280 / 18995.1 6.5 6.3
2016-Dec-02 00:00N 43°42' W 065°18'0 0.0 280 / 15994.4 7.0 6.9
2016-Dec-01 23:00N 43°42' W 065°18'0 0.0 270 / 13994.0 8.0 7.9
2016-Dec-01 22:00N 43°42' W 065°18'6 6.0 250 / 15993.7 9.1 9.0
2016-Dec-01 21:00N 43°36' W 065°18'1212.0 250 / 24993.7 9.4 9.3
2016-Dec-01 20:00N 43°24' W 065°18'7 7.4 250 / 24993.9 10.310.2
2016-Dec-01 19:00N 43°18' W 065°24'1110.6 220 / 17993.8 11.311.3
2016-Dec-01 18:00N 43°12' W 065°36'4 4.4 220 / 18994.0 11.611.5
2016-Dec-01 17:00N 43°12' W 065°42'6 6.0 180 / 14994.4 11.511.5
2016-Dec-01 16:00N 43°18' W 065°42'1313.1 120 / 22996.7 10.110.0
2016-Dec-01 15:00N 43°18' W 065°24'2412.2 100 / 291000.0 8.9 8.8
2016-Dec-01 13:00N 43°42' W 065°18'0 0.0 090 / 191005.2 7.1 7.0
2016-Dec-01 12:00N 43°42' W 065°18'0 0.0 100 / 181007.8 7.1 6.9
2016-Dec-01 11:00N 43°42' W 065°18'0 0.0 090 / 191010.0 6.9 6.7
2016-Dec-01 10:00N 43°42' W 065°18'0 0.0 100 / 151011.3 6.8 6.6
2016-Dec-01 09:00N 43°42' W 065°18'0 0.0 110 / 141011.2 6.7 6.0
2016-Dec-01 07:00N 43°42' W 065°18'0 0.0 090 / 111014.8 6.5 5.5
2016-Dec-01 06:00N 43°42' W 065°18'0 0.0 100 / 121015.4 6.1 5.2
2016-Dec-01 05:00N 43°42' W 065°18'0 0.0 070 / 111016.5 5.3 4.8
2016-Dec-01 04:00N 43°42' W 065°18'0 0.0 090 / 101016.9 4.9 4.5
2016-Dec-01 03:00N 43°42' W 065°18'0 0.0 090 / 101018.2 4.9 4.0
2016-Dec-01 01:00N 43°42' W 065°18'0 0.0 040 / 81019.2 3.3 3.0
2016-Dec-01 00:00N 43°42' W 065°18'0 0.0 050 / 81019.6 3.6 2.9
2016-Nov-30 23:00N 43°42' W 065°18'0 0.0 050 / 101019.0 4.3 3.6
2016-Nov-30 22:00N 43°42' W 065°18'0 0.0 080 / 61018.2 5.5 4.2
2016-Nov-30 21:00N 43°42' W 065°18'0 0.0 030 / 61017.0 5.1 4.0
2016-Nov-30 20:00N 43°42' W 065°18'0 0.0 060 / 71016.6 5.1 4.0
2016-Nov-30 19:00N 43°42' W 065°18'0 0.0 030 / 111015.2 4.6 3.8
2016-Nov-30 18:00N 43°42' W 065°18'0 0.0 360 / 151013.7 4.9 4.3
2016-Nov-30 17:00N 43°42' W 065°18'0 0.0 340 / 141012.9 6.3 5.9
2016-Nov-30 16:00N 43°42' W 065°18'0 0.0 330 / 161011.7 9.2 7.3
2016-Nov-30 15:00N 43°42' W 065°18'0 0.0 320 / 181010.3 10.1 9.0
2016-Nov-30 14:00N 43°42' W 065°18'0 0.0 290 / 101008.4 10.610.4
2016-Nov-30 13:00N 43°42' W 065°18'7 7.4 260 / 191007.1 10.410.3
2016-Nov-30 12:00N 43°36' W 065°12'1312.8 250 / 221006.9 10.510.5
2016-Nov-30 11:00N 43°24' W 065°06'2010.0 240 / 251007.3 10.910.8
2016-Nov-30 09:00N 43°06' W 064°54'6 6.0 170 / 231009.6 10.610.5
2016-Nov-30 08:00N 43°00' W 064°54'4 4.4 170 / 321011.1 9.9 9.8
2016-Nov-30 07:00N 43°00' W 064°48'6 6.0 150 / 311013.8 9.4 9.1
2016-Nov-30 06:00N 42°54' W 064°48'0 0.0 150 / 301016.4 8.8 8.1
2016-Nov-30 05:00N 42°54' W 064°48'0 0.0 150 / 271018.5 8.0 7.1
2016-Nov-30 04:00N 42°54' W 064°48'4 4.4 140 / 241019.8 7.6 5.8
2016-Nov-30 03:00N 42°54' W 064°42'9 8.8 150 / 201021.3 7.3 5.7
2016-Nov-30 02:00N 42°54' W 064°54'1313.2 150 / 201021.8 7.1 5.3
2016-Nov-30 01:00N 42°54' W 065°12'7 7.4 160 / 171022.8 7.7 4.8
2016-Nov-30 00:00N 42°48' W 065°18'6 6.0 160 / 111024.3 7.8 4.9
2016-Nov-29 23:00N 42°42' W 065°18'1514.5 160 / 51024.2 7.4 4.0
2016-Nov-29 22:00N 42°48' W 065°36'1414.5 210 / 51023.6 7.5 4.2
2016-Nov-29 21:00N 42°54' W 065°54'9 8.8 200 / 101024.5 7.6 4.3
2016-Nov-29 20:00N 42°54' W 066°06'4 4.4 190 / 61024.6 7.3 4.0
2016-Nov-29 19:00N 42°54' W 066°12'4 4.4 200 / 81024.7 7.1 3.6
2016-Nov-29 18:00N 42°54' W 066°18'6 6.0 190 / 71023.9 6.9 2.6
2016-Nov-29 17:00N 43°00' W 066°18'6 6.0 100 / 31024.1 6.4 2.9
2016-Nov-29 16:00N 43°06' W 066°18'4 4.4 050 / 21024.5 6.1 2.6
2016-Nov-29 15:00N 43°06' W 066°24'6 6.0 240 / 41025.6 6.3 2.5
2016-Nov-29 14:00N 43°12' W 066°24'1110.6 350 / 41025.0 5.7 2.0
2016-Nov-29 13:00N 43°18' W 066°12'4 4.4 300 / 81025.3 5.5 2.0
2016-Nov-29 12:00N 43°18' W 066°06'0 0.0 340 / 71024.3 5.3 1.5
2016-Nov-29 11:00N 43°18' W 066°06'6 6.0 320 / 81023.7 4.6 0.7
2016-Nov-29 10:00N 43°12' W 066°06'0 0.0 330 / 101023.5 4.7 1.0
2016-Nov-29 09:00N 43°12' W 066°06'6 6.0 320 / 101022.9 4.7 0.8
2016-Nov-29 08:00N 43°18' W 066°06'0 0.0 310 / 131022.3 4.5 1.0
2016-Nov-29 07:00N 43°18' W 066°06'9 8.7 340 / 161021.8 5.0 1.2
2016-Nov-29 06:00N 43°18' W 065°54'9 8.7 330 / 211020.5 5.1 1.0
2016-Nov-29 05:00N 43°18' W 065°42'4 4.4 330 / 201019.9 5.4 1.3
2016-Nov-29 04:00N 43°18' W 065°36'4 4.4 340 / 221019.2 5.4 1.6
2016-Nov-29 03:00N 43°18' W 065°30'7 7.4 330 / 211018.8 5.7 1.7
2016-Nov-29 02:00N 43°24' W 065°24'7 7.4 320 / 231018.3 6.0 2.1
2016-Nov-29 01:00N 43°30' W 065°18'   320 / 221017.1 5.8 2.1

Dump ship's entire track history